| time (UTC) | temp F | wind direction | speed knots | gust knots | rain 1hr in | rain 24hr in | rain mn in | humidity % | barometer mb |
| 20260510115249 | 54 | 94 | 1.7 | 1.7 | 0.00 | 0.00 | 0.00 | 96 | 1013.2 |
| 20260510114744 | 54 | 286 | 1.7 | 6.1 | 0.00 | 0.00 | 0.00 | 96 | 1013.2 |
| 20260510114242 | 53 | 60 | 1.7 | 5.2 | 0.00 | 0.00 | 0.00 | 96 | 1013.0 |
| 20260510113737 | 53 | 33 | 1.7 | 5.2 | 0.00 | 0.00 | 0.00 | 96 | 1012.9 |
| 20260510113234 | 53 | 156 | 3.5 | 7.8 | 0.00 | 0.00 | 0.00 | 96 | 1012.9 |
| 20260510112725 | 53 | 289 | 1.7 | 3.5 | 0.00 | 0.00 | 0.00 | 97 | 1013.0 |
| 20260510112222 | 53 | 158 | 1.7 | 2.6 | 0.00 | 0.00 | 0.00 | 97 | 1012.8 |
| 20260510111717 | 53 | 127 | 1.7 | 2.6 | 0.00 | 0.00 | 0.00 | 97 | 1012.7 |
| 20260510111215 | 53 | 173 | 1.7 | 2.6 | 0.00 | 0.00 | 0.00 | 97 | 1013.0 |
| 20260510110714 | 53 | 142 | 1.7 | 3.5 | 0.00 | 0.00 | 0.00 | 98 | 1012.9 |
| 20260510110213 | 53 | 37 | 0.0 | 3.5 | 0.00 | 0.00 | 0.00 | 98 | 1012.9 |
| 20260510105712 | 53 | 121 | 0.9 | 2.6 | 0.00 | 0.00 | 0.00 | 98 | 1012.9 |
| 20260510105207 | 52 | 71 | 0.0 | 1.7 | 0.00 | 0.00 | 0.00 | 98 | 1012.9 |
| 20260510104704 | 52 | 2 | 0.9 | 3.5 | 0.00 | 0.00 | 0.00 | 98 | 1012.9 |
| 20260510104201 | 52 | 3 | 0.0 | 3.5 | 0.00 | 0.00 | 0.00 | 98 | 1012.7 |
| 20260510103658 | 52 | 118 | 0.9 | 3.5 | 0.00 | 0.00 | 0.00 | 98 | 1012.7 |
| 20260510103155 | 52 | 196 | 0.0 | 2.6 | 0.00 | 0.00 | 0.00 | 98 | 1012.7 |
| 20260510102654 | 52 | 60 | 0.9 | 1.7 | 0.00 | 0.00 | 0.00 | 98 | 1012.5 |
| 20260510102151 | 52 | 10 | 0.0 | 0.9 | 0.00 | 0.00 | 0.00 | 98 | 1012.3 |
| 20260510101648 | 52 | 141 | 0.9 | 1.7 | 0.00 | 0.00 | 0.00 | 98 | 1012.1 |
| 20260510101147 | 52 | 37 | 0.9 | 6.1 | 0.00 | 0.00 | 0.00 | 98 | 1012.0 |
| 20260510100642 | 52 | 92 | 1.7 | 5.2 | 0.00 | 0.00 | 0.00 | 98 | 1012.0 |
| 20260510100140 | 52 | 10 | 0.0 | 0.9 | 0.00 | 0.00 | 0.00 | 98 | 1012.0 |
| 20260510095635 | 52 | 29 | 0.0 | 1.7 | 0.00 | 0.00 | 0.00 | 98 | 1011.9 |
| 20260510095130 | 52 | 35 | 0.9 | 1.7 | 0.00 | 0.00 | 0.00 | 98 | 1011.8 |
| 20260510094624 | 52 | 16 | 0.9 | 2.6 | 0.00 | 0.00 | 0.00 | 98 | 1011.9 |
| 20260510094119 | 52 | 166 | 3.5 | 6.1 | 0.00 | 0.00 | 0.00 | 99 | 1011.8 |
| 20260510093616 | 52 | 18 | 0.9 | 0.9 | 0.00 | 0.00 | 0.00 | 99 | 1011.9 |
| 20260510093113 | 52 | 22 | 0.9 | 3.5 | 0.00 | 0.00 | 0.00 | 99 | 1011.8 |
| 20260510092610 | 52 | 184 | 3.5 | 5.2 | 0.00 | 0.00 | 0.00 | 99 | 1011.5 |
| 20260510092110 | 52 | 2 | 0.0 | 0.9 | 0.00 | 0.00 | 0.00 | 99 | 1011.7 |
| 20260510091606 | 52 | 310 | 1.7 | 3.5 | 0.00 | 0.00 | 0.00 | 99 | 1011.5 |
| 20260510091102 | 52 | 10 | 0.0 | 6.1 | 0.00 | 0.00 | 0.00 | 99 | 1011.4 |
| 20260510090559 | 52 | 89 | 0.0 | 3.5 | 0.00 | 0.00 | 0.00 | 99 | 1011.1 |
| 20260510090055 | 51 | 41 | 0.0 | 2.6 | 0.00 | 0.00 | 0.00 | 99 | 1011.3 |
| 20260510085550 | 51 | 11 | 0.0 | 0.9 | 0.00 | 0.00 | 0.00 | 99 | 1011.1 |
| 20260510085046 | 51 | 16 | 0.0 | 0.0 | 0.00 | 0.00 | 0.00 | 99 | 1011.2 |
| 20260510084543 | 51 | 213 | 2.6 | 3.5 | 0.00 | 0.00 | 0.00 | 99 | 1011.3 |
| 20260510084040 | 51 | 358 | 0.9 | 1.7 | 0.00 | 0.00 | 0.00 | 99 | 1011.5 |
| 20260510083536 | 52 | 57 | 0.9 | 1.7 | 0.00 | 0.00 | 0.00 | 99 | 1011.4 |
| 20260510083032 | 51 | 159 | 0.9 | 1.7 | 0.00 | 0.00 | 0.00 | 99 | 1011.8 |
| 20260510082530 | 51 | 21 | 0.0 | 0.9 | 0.00 | 0.00 | 0.00 | 99 | 1011.6 |
| 20260510082025 | 51 | 64 | 1.7 | 1.7 | 0.00 | 0.00 | 0.00 | 99 | 1011.3 |
| 20260510081520 | 51 | 81 | 1.7 | 1.7 | 0.00 | 0.00 | 0.00 | 99 | 1011.4 |
| 20260510081016 | 51 | 19 | 0.0 | 1.7 | 0.00 | 0.00 | 0.00 | 99 | 1011.4 |
| 20260510080515 | 51 | 13 | 0.0 | 0.9 | 0.00 | 0.00 | 0.00 | 99 | 1011.6 |
| 20260510080012 | 51 | 40 | 0.0 | 0.9 | 0.00 | 0.00 | 0.00 | 99 | 1011.7 |
| 20260510075510 | 51 | 31 | 0.0 | 0.9 | 0.00 | 0.00 | 0.00 | 99 | 1011.4 |
| 20260510075006 | 51 | 2 | 0.9 | 0.9 | 0.00 | 0.00 | 0.00 | 99 | 1011.4 |
| 20260510074504 | 51 | 78 | 0.9 | 5.2 | 0.00 | 0.00 | 0.00 | 99 | 1011.0 |
| 20260510073959 | 51 | 141 | 1.7 | 3.5 | 0.00 | 0.00 | 0.00 | 99 | 1011.4 |
| 20260510073455 | 51 | 47 | 0.9 | 5.2 | 0.00 | 0.00 | 0.00 | 99 | 1011.6 |
| 20260510072952 | 51 | 324 | 0.0 | 2.6 | 0.00 | 0.00 | 0.00 | 99 | 1011.9 |
| 20260510072449 | 51 | 158 | 2.6 | 2.6 | 0.00 | 0.00 | 0.00 | 99 | 1012.1 |
| 20260510071944 | 52 | 165 | 0.9 | 1.7 | 0.00 | 0.00 | 0.00 | 99 | 1012.1 |
| 20260510071441 | 51 | 73 | 1.7 | 3.5 | 0.00 | 0.00 | 0.00 | 99 | 1012.1 |
| 20260510070939 | 52 | 31 | 0.0 | 0.9 | 0.00 | 0.00 | 0.00 | 98 | 1012.3 |
| 20260510070436 | 52 | 136 | 1.7 | 1.7 | 0.00 | 0.00 | 0.00 | 98 | 1012.1 |
| 20260510065932 | 52 | 190 | 0.9 | 1.7 | 0.00 | 0.00 | 0.00 | 98 | 1012.2 |
| 20260510065429 | 52 | 65 | 0.9 | 0.9 | 0.00 | 0.00 | 0.00 | 98 | 1012.2 |
| 20260510064925 | 52 | 10 | 0.0 | 0.9 | 0.00 | 0.00 | 0.00 | 98 | 1012.5 |
| 20260510064423 | 52 | 12 | 0.0 | 6.1 | 0.00 | 0.00 | 0.00 | 98 | 1012.5 |
| 20260510063919 | 52 | 45 | 0.0 | 2.6 | 0.00 | 0.00 | 0.00 | 98 | 1012.3 |
| 20260510063415 | 52 | 143 | 1.7 | 2.6 | 0.00 | 0.00 | 0.00 | 98 | 1012.2 |
| 20260510062913 | 52 | 333 | 0.0 | 2.6 | 0.00 | 0.00 | 0.00 | 98 | 1012.2 |
| 20260510062408 | 52 | 8 | 0.0 | 1.7 | 0.00 | 0.00 | 0.00 | 98 | 1012.2 |
| 20260510061904 | 52 | 348 | 0.9 | 3.5 | 0.00 | 0.00 | 0.00 | 98 | 1012.1 |
| 20260510061401 | 52 | 8 | 0.0 | 0.0 | 0.00 | 0.00 | 0.00 | 98 | 1012.0 |
| 20260510060856 | 52 | 6 | 0.0 | 0.0 | 0.00 | 0.00 | 0.00 | 98 | 1011.9 |
| 20260510060354 | 52 | 358 | 0.0 | 0.0 | 0.00 | 0.00 | 0.00 | 98 | 1012.0 |
| 20260510055850 | 52 | 355 | 0.9 | 0.9 | 0.00 | 0.00 | 0.00 | 98 | 1011.7 |
| 20260510055349 | 52 | 60 | 1.7 | 2.6 | 0.00 | 0.00 | 0.00 | 98 | 1011.5 |
| 20260510054843 | 52 | 31 | 0.0 | 0.9 | 0.00 | 0.00 | 0.00 | 98 | 1011.6 |
| 20260510054338 | 52 | 47 | 0.9 | 2.6 | 0.00 | 0.00 | 0.00 | 98 | 1011.6 |
| 20260510053833 | 52 | 178 | 0.0 | 2.6 | 0.00 | 0.00 | 0.00 | 98 | 1011.7 |
| 20260510053329 | 52 | 34 | 0.0 | 0.0 | 0.00 | 0.00 | 0.00 | 98 | 1011.8 |
| 20260510052826 | 51 | 33 | 0.0 | 0.9 | 0.00 | 0.00 | 0.00 | 99 | 1011.9 |
| 20260510052321 | 51 | 38 | 0.0 | 0.9 | 0.00 | 0.00 | 0.00 | 99 | 1011.8 |
| 20260510051818 | 51 | 83 | 1.7 | 2.6 | 0.00 | 0.00 | 0.00 | 99 | 1011.6 |
| 20260510051315 | 51 | 45 | 0.9 | 0.9 | 0.00 | 0.00 | 0.00 | 99 | 1011.9 |
| 20260510050812 | 51 | 44 | 0.0 | 0.9 | 0.00 | 0.00 | 0.00 | 99 | 1011.6 |
| 20260510050309 | 51 | 51 | 0.9 | 1.7 | 0.00 | 0.00 | 0.00 | 99 | 1011.6 |
| 20260510045806 | 51 | 119 | 1.7 | 3.5 | 0.00 | 0.00 | 0.00 | 99 | 1011.7 |
| 20260510045305 | 51 | 9 | 0.0 | 0.9 | 0.00 | 0.00 | 0.00 | 99 | 1011.7 |
| 20260510044759 | 51 | 3 | 0.0 | 0.9 | 0.00 | 0.00 | 0.00 | 99 | 1011.7 |
| 20260510044256 | 51 | 6 | 0.0 | 0.0 | 0.00 | 0.00 | 0.00 | 99 | 1011.7 |
| 20260510043752 | 51 | 6 | 0.0 | 0.0 | 0.00 | 0.00 | 0.00 | 99 | 1011.8 |
| 20260510043243 | 51 | 5 | 0.0 | 0.0 | 0.00 | 0.00 | 0.00 | 99 | 1011.8 |
| 20260510042740 | 51 | 12 | 0.0 | 0.0 | 0.00 | 0.00 | 0.00 | 99 | 1011.9 |
| 20260510042230 | 51 | 11 | 0.0 | 0.0 | 0.00 | 0.00 | 0.00 | 99 | 1011.7 |
| 20260510041727 | 50 | 8 | 0.0 | 0.0 | 0.00 | 0.00 | 0.00 | 99 | 1011.6 |
| 20260510041224 | 50 | 32 | 0.0 | 0.0 | 0.00 | 0.00 | 0.00 | 99 | 1011.4 |
| 20260510040721 | 51 | 45 | 0.0 | 1.7 | 0.00 | 0.00 | 0.00 | 99 | 1011.5 |
| 20260510040218 | 51 | 16 | 0.0 | 0.0 | 0.00 | 0.00 | 0.00 | 99 | 1011.5 |
| 20260510035713 | 51 | 7 | 0.0 | 0.0 | 0.00 | 0.37 | 0.37 | 99 | 1011.5 |
| 20260510035210 | 51 | 5 | 0.0 | 0.0 | 0.00 | 0.37 | 0.37 | 99 | 1011.7 |
| 20260510034706 | 50 | 17 | 0.9 | 1.7 | 0.00 | 0.37 | 0.37 | 99 | 1011.9 |
| 20260510034203 | 50 | 351 | 0.0 | 0.0 | 0.00 | 0.37 | 0.37 | 99 | 1011.9 |
| 20260510033659 | 50 | 356 | 0.0 | 0.0 | 0.00 | 0.37 | 0.37 | 99 | 1011.7 |
| 20260510033157 | 50 | 9 | 0.0 | 1.7 | 0.00 | 0.37 | 0.37 | 99 | 1011.7 |
| 20260510032653 | 50 | 25 | 0.0 | 0.0 | 0.00 | 0.37 | 0.37 | 98 | 1011.6 |
| 20260510032149 | 51 | 25 | 0.0 | 0.0 | 0.00 | 0.37 | 0.37 | 98 | 1011.5 |
| 20260510031643 | 51 | 15 | 0.0 | 0.0 | 0.00 | 0.37 | 0.37 | 98 | 1011.4 |
| 20260510031140 | 51 | 34 | 0.0 | 0.0 | 0.00 | 0.37 | 0.37 | 97 | 1011.5 |
| 20260510030635 | 51 | 23 | 0.0 | 0.0 | 0.00 | 0.37 | 0.37 | 97 | 1011.5 |
| 20260510030133 | 52 | 20 | 0.0 | 0.0 | 0.00 | 0.37 | 0.37 | 97 | 1011.5 |
| 20260510025630 | 52 | 69 | 1.7 | 1.7 | 0.00 | 0.37 | 0.37 | 97 | 1011.4 |
| 20260510025127 | 52 | 44 | 0.9 | 5.2 | 0.00 | 0.37 | 0.37 | 97 | 1011.6 |
| 20260510024624 | 52 | 25 | 0.0 | 0.9 | 0.00 | 0.37 | 0.37 | 97 | 1011.6 |
| 20260510024120 | 53 | 50 | 0.9 | 1.7 | 0.00 | 0.37 | 0.37 | 96 | 1011.7 |
| 20260510023616 | 53 | 50 | 0.0 | 1.7 | 0.00 | 0.37 | 0.37 | 96 | 1011.7 |
| 20260510023113 | 53 | 51 | 0.9 | 0.9 | 0.00 | 0.37 | 0.37 | 96 | 1011.7 |
| 20260510022608 | 53 | 41 | 0.0 | 0.0 | 0.00 | 0.37 | 0.37 | 96 | 1011.6 |
| 20260510022102 | 53 | 41 | 0.9 | 1.7 | 0.00 | 0.37 | 0.37 | 96 | 1011.7 |
| 20260510021559 | 53 | 90 | 0.9 | 0.9 | 0.00 | 0.37 | 0.37 | 97 | 1011.8 |
| 20260510021056 | 53 | 41 | 0.9 | 1.7 | 0.00 | 0.37 | 0.37 | 97 | 1011.9 |
| 20260510020550 | 53 | 20 | 0.0 | 0.0 | 0.00 | 0.37 | 0.37 | 97 | 1011.7 |
| 20260510020046 | 53 | 19 | 0.0 | 0.0 | 0.00 | 0.37 | 0.37 | 97 | 1011.8 |
| 20260510015542 | 53 | 19 | 0.0 | 0.0 | 0.00 | 0.37 | 0.37 | 97 | 1011.8 |
| 20260510015038 | 53 | 14 | 0.0 | 0.0 | 0.00 | 0.37 | 0.37 | 97 | 1011.9 |
| 20260510014535 | 53 | 14 | 0.0 | 0.0 | 0.00 | 0.37 | 0.37 | 97 | 1011.9 |
| 20260510014032 | 53 | 11 | 0.0 | 0.0 | 0.00 | 0.37 | 0.37 | 97 | 1011.6 |
| 20260510013526 | 53 | 56 | 0.0 | 0.9 | 0.00 | 0.37 | 0.37 | 97 | 1011.5 |
| 20260510013022 | 53 | 32 | 0.0 | 0.0 | 0.00 | 0.37 | 0.37 | 96 | 1011.6 |
| 20260510012522 | 53 | 32 | 0.0 | 0.9 | 0.00 | 0.37 | 0.37 | 96 | 1011.7 |
| 20260510012019 | 53 | 30 | 0.0 | 0.0 | 0.00 | 0.37 | 0.37 | 96 | 1011.6 |
| 20260510011518 | 53 | 43 | 0.9 | 1.7 | 0.00 | 0.37 | 0.37 | 97 | 1011.5 |
| 20260510011014 | 53 | 13 | 0.0 | 0.0 | 0.00 | 0.37 | 0.37 | 97 | 1011.7 |
| 20260510010511 | 53 | 14 | 0.0 | 0.0 | 0.00 | 0.37 | 0.37 | 97 | 1011.7 |
| 20260510010008 | 53 | 14 | 0.0 | 0.0 | 0.00 | 0.37 | 0.37 | 97 | 1011.7 |
| 20260510005504 | 53 | 13 | 0.0 | 0.0 | 0.00 | 0.37 | 0.37 | 96 | 1011.7 |
| 20260510005001 | 53 | 12 | 0.0 | 0.0 | 0.00 | 0.37 | 0.37 | 96 | 1011.7 |
| 20260510004459 | 53 | 17 | 0.0 | 0.0 | 0.00 | 0.37 | 0.37 | 96 | 1011.5 |
| 20260510003957 | 54 | 27 | 0.0 | 0.0 | 0.00 | 0.37 | 0.37 | 95 | 1011.4 |
| 20260510003453 | 54 | 20 | 0.0 | 0.0 | 0.00 | 0.37 | 0.37 | 95 | 1011.5 |
| 20260510002948 | 54 | 35 | 0.0 | 0.0 | 0.00 | 0.37 | 0.37 | 95 | 1011.4 |
| 20260510002444 | 54 | 31 | 0.0 | 0.0 | 0.00 | 0.37 | 0.37 | 95 | 1011.2 |
| 20260510001941 | 54 | 36 | 0.0 | 0.0 | 0.00 | 0.37 | 0.37 | 96 | 1011.4 |
| 20260510001438 | 54 | 34 | 0.0 | 0.0 | 0.00 | 0.37 | 0.37 | 95 | 1011.0 |
| 20260510000936 | 54 | 79 | 0.9 | 1.7 | 0.00 | 0.37 | 0.37 | 95 | 1011.0 |
| 20260510000433 | 54 | 166 | 0.0 | 0.9 | 0.00 | 0.37 | 0.37 | 96 | 1010.8 |
| 20260509235929 | 54 | 34 | 0.0 | 0.9 | 0.00 | 0.37 | 0.37 | 96 | 1010.8 |
| 20260509235426 | 54 | 54 | 0.9 | 2.6 | 0.00 | 0.37 | 0.37 | 95 | 1010.5 |
| 20260509234922 | 54 | 18 | 0.0 | 3.5 | 0.00 | 0.37 | 0.37 | 95 | 1010.4 |
| 20260509234419 | 54 | 54 | 0.9 | 2.6 | 0.00 | 0.37 | 0.37 | 95 | 1010.6 |
| 20260509233917 | 54 | 1 | 0.0 | 0.9 | 0.00 | 0.37 | 0.37 | 95 | 1010.3 |
| 20260509233414 | 54 | 79 | 0.0 | 0.9 | 0.00 | 0.37 | 0.37 | 95 | 1010.4 |
| 20260509232910 | 55 | 226 | 0.9 | 1.7 | 0.00 | 0.37 | 0.37 | 95 | 1010.2 |
| 20260509232408 | 55 | 21 | 0.0 | 1.7 | 0.00 | 0.37 | 0.37 | 94 | 1010.4 |
| 20260509231903 | 55 | 29 | 0.9 | 3.5 | 0.00 | 0.37 | 0.37 | 94 | 1010.2 |
| 20260509231400 | 55 | 162 | 2.6 | 6.1 | 0.00 | 0.37 | 0.37 | 94 | 1010.1 |
| 20260509230859 | 55 | 258 | 0.9 | 2.6 | 0.00 | 0.37 | 0.37 | 94 | 1010.2 |
| 20260509230355 | 55 | 88 | 1.7 | 3.5 | 0.00 | 0.37 | 0.37 | 94 | 1010.1 |
| 20260509225851 | 55 | 146 | 1.7 | 7.0 | 0.00 | 0.37 | 0.37 | 93 | 1010.1 |
| 20260509225348 | 55 | 324 | 0.9 | 5.2 | 0.00 | 0.37 | 0.37 | 93 | 1010.1 |
| 20260509224843 | 55 | 191 | 2.6 | 3.5 | 0.00 | 0.37 | 0.37 | 94 | 1010.2 |
| 20260509224340 | 55 | 150 | 3.5 | 5.2 | 0.00 | 0.37 | 0.37 | 93 | 1010.2 |
| 20260509223837 | 55 | 63 | 0.9 | 0.9 | 0.00 | 0.37 | 0.37 | 94 | 1010.3 |
| 20260509223333 | 55 | 172 | 1.7 | 9.6 | 0.00 | 0.37 | 0.37 | 93 | 1010.3 |
| 20260509222830 | 56 | 58 | 0.9 | 5.2 | 0.00 | 0.37 | 0.37 | 94 | 1010.4 |
| 20260509222326 | 56 | 63 | 3.5 | 6.1 | 0.00 | 0.37 | 0.37 | 93 | 1010.3 |
| 20260509221821 | 55 | 166 | 1.7 | 2.6 | 0.00 | 0.37 | 0.37 | 94 | 1010.3 |
| 20260509221319 | 56 | 19 | 0.0 | 0.9 | 0.00 | 0.37 | 0.37 | 95 | 1010.3 |
| 20260509220814 | 55 | 166 | 1.7 | 2.6 | 0.00 | 0.37 | 0.37 | 95 | 1010.3 |
| 20260509220310 | 55 | 203 | 2.6 | 3.5 | 0.00 | 0.37 | 0.37 | 95 | 1010.5 |
| 20260509215806 | 55 | 180 | 4.3 | 6.1 | 0.00 | 0.37 | 0.37 | 95 | 1010.2 |
| 20260509215305 | 55 | 25 | 0.9 | 5.2 | 0.00 | 0.37 | 0.37 | 96 | 1010.4 |
| 20260509214800 | 55 | 155 | 1.7 | 2.6 | 0.00 | 0.37 | 0.37 | 96 | 1010.4 |
| 20260509214257 | 55 | 185 | 2.6 | 5.2 | 0.00 | 0.37 | 0.37 | 96 | 1010.5 |
| 20260509213754 | 55 | 138 | 1.7 | 6.1 | 0.00 | 0.37 | 0.37 | 97 | 1010.4 |
| 20260509213249 | 55 | 26 | 0.0 | 0.9 | 0.00 | 0.37 | 0.37 | 97 | 1010.6 |
| 20260509212747 | 55 | 225 | 2.6 | 3.5 | 0.00 | 0.37 | 0.37 | 97 | 1010.5 |
| 20260509212244 | 54 | 19 | 0.0 | 0.9 | 0.00 | 0.37 | 0.37 | 98 | 1010.8 |
| 20260509211745 | 54 | 32 | 0.0 | 0.0 | 0.00 | 0.37 | 0.37 | 98 | 1010.7 |
| 20260509211241 | 54 | 176 | 3.5 | 5.2 | 0.00 | 0.37 | 0.37 | 98 | 1010.7 |
| 20260509210738 | 54 | 19 | 0.0 | 1.7 | 0.00 | 0.37 | 0.37 | 98 | 1010.7 |
| 20260509210236 | 54 | 145 | 1.7 | 3.5 | 0.00 | 0.37 | 0.37 | 99 | 1010.7 |
| 20260509205735 | 54 | 52 | 0.9 | 3.5 | 0.00 | 0.37 | 0.37 | 99 | 1010.7 |
| 20260509205230 | 53 | 36 | 0.0 | 2.6 | 0.00 | 0.37 | 0.37 | 99 | 1010.9 |
| 20260509204726 | 53 | 25 | 0.0 | 0.0 | 0.00 | 0.37 | 0.37 | 99 | 1011.0 |
| 20260509204223 | 53 | 113 | 1.7 | 6.1 | 0.00 | 0.37 | 0.37 | 99 | 1011.2 |
| 20260509203719 | 53 | 11 | 0.0 | 1.7 | 0.00 | 0.37 | 0.37 | 99 | 1011.1 |
| 20260509203218 | 53 | 338 | 0.0 | 1.7 | 0.00 | 0.37 | 0.37 | 99 | 1011.1 |
| 20260509202713 | 53 | 161 | 4.3 | 6.1 | 0.00 | 0.37 | 0.37 | 99 | 1011.1 |
| 20260509202208 | 53 | 193 | 2.6 | 3.5 | 0.00 | 0.37 | 0.37 | 99 | 1011.2 |
| 20260509201703 | 53 | 345 | 0.0 | 2.6 | 0.00 | 0.37 | 0.37 | 99 | 1011.4 |
| 20260509201201 | 53 | 152 | 1.7 | 2.6 | 0.00 | 0.37 | 0.37 | 99 | 1011.4 |
| 20260509200656 | 53 | 91 | 1.7 | 6.1 | 0.00 | 0.37 | 0.37 | 99 | 1011.5 |
| 20260509200152 | 52 | 169 | 0.9 | 2.6 | 0.00 | 0.37 | 0.37 | 99 | 1011.5 |
| 20260509195648 | 52 | 30 | 0.0 | 1.7 | 0.00 | 0.37 | 0.37 | 99 | 1011.6 |
| 20260509195143 | 52 | 36 | 0.9 | 1.7 | 0.00 | 0.37 | 0.37 | 99 | 1011.9 |
| 20260509194642 | 52 | 219 | 2.6 | 3.5 | 0.00 | 0.37 | 0.37 | 99 | 1011.6 |
| 20260509194140 | 52 | 115 | 0.9 | 1.7 | 0.00 | 0.37 | 0.37 | 99 | 1011.8 |
| 20260509193635 | 52 | 160 | 3.5 | 3.5 | 0.00 | 0.37 | 0.37 | 99 | 1011.8 |
| 20260509193131 | 52 | 5 | 0.9 | 7.8 | 0.00 | 0.37 | 0.37 | 99 | 1011.8 |
| 20260509192628 | 51 | 17 | 1.7 | 3.5 | 0.00 | 0.37 | 0.37 | 99 | 1011.9 |
| 20260509192123 | 52 | 23 | 0.9 | 2.6 | 0.00 | 0.37 | 0.37 | 99 | 1011.9 |
| 20260509191617 | 51 | 24 | 0.0 | 2.6 | 0.00 | 0.37 | 0.37 | 99 | 1012.0 |
| 20260509191114 | 51 | 0 | 0.0 | 0.0 | 0.00 | 0.37 | 0.37 | 99 | 1012.0 |
| 20260509190611 | 51 | 18 | 0.0 | 0.0 | 0.07 | 0.37 | 0.37 | 99 | 1012.1 |
| 20260509190108 | 51 | 35 | 0.0 | 0.9 | 0.07 | 0.37 | 0.37 | 99 | 1012.3 |
| 20260509185606 | 51 | 29 | 0.0 | 0.0 | 0.00 | 0.36 | 0.36 | 99 | 1012.4 |
| 20260509185102 | 51 | 3 | 0.0 | 0.0 | 0.05 | 0.36 | 0.36 | 99 | 1012.4 |
| 20260509184600 | 51 | 19 | 0.0 | 0.0 | 0.00 | 0.35 | 0.35 | 99 | 1012.3 |
| 20260509184057 | 51 | 30 | 0.0 | 0.0 | 0.07 | 0.35 | 0.35 | 99 | 1012.4 |
| 20260509183552 | 51 | 41 | 0.9 | 1.7 | 0.07 | 0.35 | 0.35 | 99 | 1012.4 |
| 20260509183048 | 51 | 25 | 0.0 | 0.9 | 0.00 | 0.34 | 0.34 | 99 | 1012.2 |
| 20260509182544 | 51 | 12 | 0.0 | 0.0 | 0.00 | 0.34 | 0.34 | 99 | 1012.3 |
| 20260509182041 | 51 | 4 | 0.0 | 0.0 | 0.07 | 0.34 | 0.34 | 99 | 1012.3 |
| 20260509181540 | 51 | 25 | 0.0 | 0.9 | 0.07 | 0.34 | 0.34 | 99 | 1012.4 |
| 20260509181036 | 51 | 20 | 0.0 | 0.0 | 0.00 | 0.33 | 0.33 | 99 | 1012.4 |
| 20260509180532 | 50 | 26 | 0.0 | 0.9 | 0.00 | 0.33 | 0.33 | 99 | 1012.3 |
| 20260509180030 | 50 | 26 | 0.0 | 0.9 | 0.00 | 0.33 | 0.33 | 99 | 1012.3 |
| 20260509175525 | 50 | 66 | 1.7 | 2.6 | 0.00 | 0.33 | 0.33 | 99 | 1012.4 |
| 20260509175023 | 50 | 34 | 0.0 | 0.0 | 0.05 | 0.33 | 0.33 | 99 | 1012.4 |
| 20260509174519 | 50 | 69 | 0.9 | 2.6 | 0.05 | 0.33 | 0.33 | 99 | 1012.5 |
| 20260509174014 | 49 | 39 | 0.0 | 0.0 | 0.00 | 0.32 | 0.32 | 99 | 1012.7 |
| 20260509173508 | 49 | 69 | 0.9 | 1.7 | 0.00 | 0.32 | 0.32 | 99 | 1012.6 |
| 20260509173005 | 49 | 79 | 1.7 | 1.7 | 0.00 | 0.32 | 0.32 | 99 | 1012.6 |
| 20260509172503 | 49 | 355 | 0.0 | 0.0 | 0.07 | 0.32 | 0.32 | 99 | 1012.8 |
| 20260509171958 | 49 | 15 | 0.0 | 0.0 | 0.07 | 0.32 | 0.32 | 99 | 1012.6 |
| 20260509171454 | 49 | 26 | 0.0 | 0.9 | 0.00 | 0.31 | 0.31 | 99 | 1012.8 |
| 20260509170951 | 48 | 41 | 0.9 | 1.7 | 0.00 | 0.31 | 0.31 | 99 | 1013.0 |
| 20260509170446 | 48 | 137 | 2.6 | 2.6 | 0.00 | 0.31 | 0.31 | 99 | 1013.0 |
| 20260509165942 | 48 | 190 | 1.7 | 2.6 | 0.00 | 0.31 | 0.31 | 99 | 1013.0 |
| 20260509165441 | 48 | 65 | 1.7 | 1.7 | 0.00 | 0.31 | 0.31 | 99 | 1013.0 |
| 20260509164937 | 48 | 34 | 0.0 | 1.7 | 0.05 | 0.31 | 0.31 | 99 | 1012.9 |
| 20260509164433 | 48 | 59 | 1.7 | 2.6 | 0.05 | 0.31 | 0.31 | 99 | 1013.0 |
| 20260509163929 | 48 | 164 | 1.7 | 1.7 | 0.00 | 0.30 | 0.30 | 99 | 1013.1 |
| 20260509163427 | 48 | 155 | 2.6 | 2.6 | 0.00 | 0.30 | 0.30 | 99 | 1013.1 |
| 20260509162926 | 48 | 3 | 0.0 | 1.7 | 0.00 | 0.30 | 0.30 | 99 | 1013.0 |
| 20260509162425 | 48 | 50 | 0.9 | 2.6 | 0.07 | 0.30 | 0.30 | 99 | 1013.3 |
| 20260509161920 | 48 | 41 | 0.0 | 1.7 | 0.07 | 0.30 | 0.30 | 99 | 1013.6 |
| 20260509161417 | 47 | 23 | 0.0 | 0.9 | 0.00 | 0.29 | 0.29 | 99 | 1013.5 |
| 20260509160912 | 48 | 54 | 0.9 | 1.7 | 0.00 | 0.29 | 0.29 | 99 | 1013.9 |
| 20260509160408 | 47 | 36 | 0.0 | 1.7 | 0.05 | 0.29 | 0.29 | 99 | 1013.8 |
| 20260509155904 | 47 | 50 | 0.9 | 1.7 | 0.00 | 0.28 | 0.28 | 99 | 1013.8 |
| 20260509155401 | 47 | 55 | 0.9 | 1.7 | 0.07 | 0.28 | 0.28 | 99 | 1013.7 |
| 20260509154857 | 47 | 113 | 0.0 | 0.0 | 0.00 | 0.27 | 0.27 | 99 | 1014.0 |
| 20260509154354 | 47 | 41 | 0.0 | 1.7 | 0.00 | 0.27 | 0.27 | 99 | 1013.9 |
| 20260509153850 | 47 | 26 | 0.0 | 0.0 | 0.05 | 0.27 | 0.27 | 99 | 1013.9 |
| 20260509153348 | 47 | 4 | 0.0 | 0.9 | 0.05 | 0.27 | 0.27 | 99 | 1014.2 |
| 20260509152844 | 46 | 121 | 0.0 | 0.9 | 0.00 | 0.26 | 0.26 | 99 | 1014.2 |
| 20260509152340 | 46 | 43 | 0.9 | 1.7 | 0.00 | 0.26 | 0.26 | 99 | 1014.5 |
| 20260509151838 | 46 | 60 | 0.9 | 1.7 | 0.07 | 0.26 | 0.26 | 99 | 1014.4 |
| 20260509151334 | 46 | 20 | 0.0 | 0.9 | 0.07 | 0.26 | 0.26 | 99 | 1014.5 |
| 20260509150832 | 46 | 56 | 0.9 | 1.7 | 0.05 | 0.25 | 0.25 | 99 | 1014.5 |
| 20260509150330 | 46 | 352 | 0.9 | 2.6 | 0.05 | 0.25 | 0.25 | 99 | 1014.5 |
| 20260509145827 | 46 | 34 | 0.0 | 0.9 | 0.07 | 0.24 | 0.24 | 99 | 1014.5 |
| 20260509145321 | 45 | 27 | 0.0 | 1.7 | 0.07 | 0.24 | 0.24 | 99 | 1014.6 |
| 20260509144818 | 45 | 208 | 0.9 | 2.6 | 0.12 | 0.23 | 0.23 | 99 | 1014.5 |
| 20260509144315 | 45 | 54 | 0.9 | 0.9 | 0.07 | 0.22 | 0.22 | 99 | 1014.7 |
| 20260509143812 | 45 | 28 | 0.9 | 1.7 | 0.07 | 0.21 | 0.21 | 99 | 1014.6 |
| 20260509143310 | 45 | 32 | 0.0 | 0.9 | 0.12 | 0.21 | 0.21 | 99 | 1014.3 |
| 20260509142806 | 45 | 32 | 0.0 | 0.9 | 0.12 | 0.20 | 0.20 | 99 | 1014.4 |
| 20260509142306 | 45 | 35 | 0.0 | 0.0 | 0.05 | 0.18 | 0.18 | 99 | 1014.6 |
| 20260509141757 | 45 | 40 | 0.0 | 0.9 | 0.07 | 0.17 | 0.17 | 99 | 1014.4 |
| 20260509141255 | 45 | 35 | 0.0 | 0.0 | 0.19 | 0.17 | 0.17 | 99 | 1014.3 |
| 20260509140751 | 45 | 46 | 0.9 | 1.7 | 0.12 | 0.15 | 0.15 | 99 | 1014.5 |
| 20260509140248 | 44 | 31 | 0.0 | 0.0 | 0.12 | 0.14 | 0.14 | 99 | 1014.3 |
| 20260509135746 | 45 | 34 | 0.0 | 0.0 | 0.07 | 0.13 | 0.13 | 99 | 1014.2 |
| 20260509135244 | 45 | 33 | 0.0 | 0.0 | 0.05 | 0.12 | 0.12 | 99 | 1014.2 |
| 20260509134740 | 45 | 11 | 0.0 | 0.0 | 0.05 | 0.12 | 0.12 | 99 | 1014.5 |
| 20260509134238 | 45 | 7 | 0.0 | 0.0 | 0.07 | 0.11 | 0.11 | 99 | 1014.2 |
| 20260509133735 | 45 | 6 | 0.0 | 0.0 | 0.07 | 0.11 | 0.11 | 99 | 1014.4 |
| 20260509133231 | 45 | 5 | 0.0 | 0.0 | 0.05 | 0.10 | 0.10 | 99 | 1014.1 |
| 20260509132730 | 44 | 1 | 0.0 | 0.0 | 0.05 | 0.10 | 0.10 | 99 | 1014.2 |
| 20260509132229 | 44 | 0 | 0.0 | 0.9 | 0.00 | 0.09 | 0.09 | 99 | 1014.2 |
| 20260509131725 | 44 | 23 | 0.0 | 0.0 | 0.00 | 0.09 | 0.09 | 99 | 1014.3 |
| 20260509131221 | 44 | 13 | 0.0 | 0.0 | 0.00 | 0.09 | 0.09 | 99 | 1014.3 |
| 20260509130717 | 44 | 13 | 0.0 | 0.9 | 0.00 | 0.09 | 0.09 | 99 | 1014.2 |
| 20260509130213 | 44 | 8 | 0.0 | 0.0 | 0.00 | 0.09 | 0.09 | 99 | 1014.1 |
| 20260509125710 | 44 | 15 | 0.0 | 0.0 | 0.00 | 0.09 | 0.09 | 99 | 1014.2 |
| 20260509125207 | 44 | 36 | 0.0 | 0.0 | 0.00 | 0.09 | 0.09 | 99 | 1014.4 |
| 20260509124703 | 44 | 44 | 0.0 | 1.7 | 0.00 | 0.09 | 0.09 | 99 | 1014.3 |
| 20260509124200 | 44 | 64 | 0.9 | 1.7 | 0.07 | 0.09 | 0.09 | 99 | 1014.6 |
| 20260509123658 | 44 | 36 | 0.0 | 0.0 | 0.07 | 0.09 | 0.09 | 99 | 1014.4 |
| 20260509123155 | 44 | 32 | 0.0 | 0.0 | 0.00 | 0.08 | 0.08 | 99 | 1014.5 |
| 20260509122650 | 44 | 33 | 0.0 | 0.0 | 0.00 | 0.08 | 0.08 | 99 | 1014.7 |
| 20260509122148 | 44 | 48 | 0.0 | 0.9 | 0.07 | 0.08 | 0.08 | 99 | 1014.6 |
| 20260509121644 | 44 | 38 | 0.9 | 1.7 | 0.07 | 0.08 | 0.08 | 99 | 1014.6 |
| 20260509121142 | 44 | 11 | 0.0 | 0.9 | 0.05 | 0.07 | 0.07 | 99 | 1014.4 |
| 20260509120640 | 44 | 63 | 0.9 | 0.9 | 0.05 | 0.07 | 0.07 | 99 | 1014.7 |
| 20260509120138 | 44 | 32 | 0.0 | 0.0 | 0.07 | 0.06 | 0.06 | 99 | 1014.4 |
| 20260509115635 | 44 | 40 | 0.0 | 0.0 | 0.07 | 0.06 | 0.06 | 99 | 1014.7 |